createdAt,value
2018-05-25T00:00:49.853Z,98386.82
2018-05-25T00:03:18.113Z,98387.94
2018-05-25T00:05:47.241Z,98388.32
2018-05-25T00:08:15.492Z,98388.76
2018-05-25T00:10:44.748Z,98388.70
2018-05-25T00:13:12.993Z,98388.61
2018-05-25T00:15:41.255Z,98391.52
2018-05-25T00:18:09.500Z,98386.45
2018-05-25T00:20:37.777Z,98383.47
2018-05-25T00:23:06.029Z,98380.97
2018-05-25T00:25:34.278Z,98381.00
2018-05-25T00:28:02.529Z,98378.94
2018-05-25T00:30:30.788Z,98382.91
2018-05-25T00:32:59.807Z,98381.66
2018-05-25T00:35:28.065Z,98376.63
2018-05-25T00:37:57.126Z,98374.62
2018-05-25T00:40:26.898Z,98378.12
2018-05-25T00:42:55.157Z,98375.14
2018-05-25T00:45:23.400Z,98374.81
2018-05-25T00:47:51.652Z,98371.14
2018-05-25T00:50:19.915Z,98375.48
2018-05-25T00:52:48.165Z,98374.62
2018-05-25T00:55:41.739Z,98375.13
2018-05-25T00:58:09.993Z,98378.08
2018-05-25T01:00:38.268Z,98371.91
2018-05-25T01:03:07.293Z,98377.11
2018-05-25T01:05:35.554Z,98381.82
2018-05-25T01:08:03.805Z,98371.69
2018-05-25T01:10:32.816Z,98380.67
2018-05-25T01:13:01.082Z,98379.81
2018-05-25T01:15:29.336Z,98380.24
2018-05-25T01:17:58.367Z,98379.83
2018-05-25T01:20:26.624Z,98381.59
2018-05-25T01:22:54.888Z,98376.98
2018-05-25T01:25:23.908Z,98382.04
2018-05-25T01:27:52.171Z,98378.64
2018-05-25T01:30:20.452Z,98379.13
2018-05-25T01:32:48.721Z,98376.56
2018-05-25T01:35:16.977Z,98374.53
2018-05-25T01:37:46.001Z,98370.73
2018-05-25T01:40:14.265Z,98373.28
2018-05-25T01:42:42.513Z,98371.70
2018-05-25T01:45:10.776Z,98367.82
2018-05-25T01:47:39.030Z,98365.34
2018-05-25T01:50:07.300Z,98366.74
2018-05-25T01:52:35.544Z,98364.17
2018-05-25T01:55:03.803Z,98367.65
2018-05-25T01:57:32.817Z,98369.34
2018-05-25T02:00:01.077Z,98365.12
2018-05-25T02:02:30.101Z,98363.78
2018-05-25T02:04:58.358Z,98365.05
2018-05-25T02:07:26.607Z,98368.47
2018-05-25T02:09:54.864Z,98368.09
2018-05-25T02:12:23.726Z,98375.34
2018-05-25T02:14:51.981Z,98375.30
2018-05-25T02:17:20.246Z,98376.63
2018-05-25T02:19:49.279Z,98371.08
2018-05-25T02:22:17.529Z,98374.07
2018-05-25T02:24:45.780Z,98372.81
2018-05-25T02:27:14.796Z,98377.00
2018-05-25T02:29:43.063Z,98375.76
2018-05-25T02:32:11.336Z,98379.11
2018-05-25T02:34:39.584Z,98382.93
2018-05-25T02:37:08.608Z,98380.38
2018-05-25T02:39:36.862Z,98378.24
2018-05-25T02:42:05.885Z,98373.94
2018-05-25T02:44:34.135Z,98381.95
2018-05-25T02:47:03.157Z,98379.30
2018-05-25T02:49:32.433Z,98379.29
2018-05-25T02:52:01.449Z,98373.40
2018-05-25T02:54:29.696Z,98372.52
2018-05-25T02:56:58.713Z,98371.64
2018-05-25T02:59:26.956Z,98378.48
2018-05-25T03:01:55.213Z,98382.80
2018-05-25T03:04:23.476Z,98381.20
2018-05-25T03:06:51.745Z,98375.19
2018-05-25T03:09:20.001Z,98372.27
2018-05-25T03:11:48.280Z,98375.13
2018-05-25T03:14:16.524Z,98376.06
2018-05-25T03:16:45.545Z,98372.67
2018-05-25T03:19:13.809Z,98374.00
2018-05-25T03:21:42.809Z,98369.80
2018-05-25T03:24:11.908Z,98376.94
2018-05-25T03:26:40.150Z,98370.56
2018-05-25T03:29:09.178Z,98377.69
2018-05-25T03:31:37.428Z,98380.38
2018-05-25T03:34:06.457Z,98374.34
2018-05-25T03:36:35.872Z,98375.61
2018-05-25T03:39:04.346Z,98380.70
2018-05-25T03:41:32.593Z,98373.47
2018-05-25T03:44:00.858Z,98373.56
2018-05-25T03:46:29.878Z,98369.28
2018-05-25T03:48:58.136Z,98372.27
2018-05-25T03:51:26.396Z,98382.89
2018-05-25T03:53:55.412Z,98380.31
2018-05-25T03:56:23.660Z,98383.02
2018-05-25T03:59:09.862Z,98371.15
2018-05-25T04:01:56.718Z,98368.11
2018-05-25T04:04:25.837Z,98371.01
2018-05-25T04:06:54.076Z,98374.62
2018-05-25T04:09:22.327Z,98372.52
2018-05-25T04:11:50.579Z,98375.14
2018-05-25T04:14:19.639Z,98377.79
2018-05-25T04:16:47.853Z,98370.42
2018-05-25T04:19:16.877Z,98381.58
2018-05-25T04:21:45.126Z,98384.47
2018-05-25T04:24:13.376Z,98389.68
2018-05-25T04:26:41.624Z,98387.14
2018-05-25T04:29:09.886Z,98389.61
2018-05-25T04:31:38.140Z,98395.45
2018-05-25T04:34:07.168Z,98394.57
2018-05-25T04:36:35.417Z,98383.44
2018-05-25T04:39:03.670Z,98383.74
2018-05-25T04:41:32.694Z,98387.09
2018-05-25T04:44:00.945Z,98389.27
2018-05-25T04:46:29.973Z,98394.29
2018-05-25T04:48:58.215Z,98398.70
2018-05-25T04:51:27.241Z,98400.87
2018-05-25T04:53:55.490Z,98402.02
2018-05-25T04:56:24.596Z,98395.55
2018-05-25T04:58:52.903Z,98397.22
2018-05-25T05:01:21.876Z,98401.44
2018-05-25T05:03:50.123Z,98402.38
2018-05-25T05:06:19.141Z,98400.64
2018-05-25T05:08:47.395Z,98402.39
2018-05-25T05:11:16.412Z,98409.62
2018-05-25T05:13:45.573Z,98415.03
2018-05-25T05:16:14.590Z,98411.45
2018-05-25T05:18:42.846Z,98411.33
2018-05-25T05:21:11.865Z,98412.95
2018-05-25T05:23:40.132Z,98411.27
2018-05-25T05:26:09.148Z,98421.92
2018-05-25T05:28:37.400Z,98418.42
2018-05-25T05:31:05.653Z,98416.23
2018-05-25T05:33:33.954Z,98421.33
2018-05-25T05:36:02.233Z,98423.11
2018-05-25T05:38:30.485Z,98421.78
2018-05-25T05:40:59.504Z,98420.88
2018-05-25T05:43:27.757Z,98425.22
2018-05-25T05:45:56.781Z,98429.60
2018-05-25T05:48:25.024Z,98427.47
2018-05-25T05:50:54.058Z,98427.44
2018-05-25T05:53:22.298Z,98427.98
2018-05-25T05:55:51.318Z,98428.38
2018-05-25T05:58:19.572Z,98430.53
2018-05-25T06:00:48.592Z,98431.56
2018-05-25T06:03:16.851Z,98437.85
2018-05-25T06:05:45.096Z,98432.86
2018-05-25T06:08:13.356Z,98434.98
2018-05-25T06:10:41.618Z,98435.61
2018-05-25T06:13:09.875Z,98438.63
2018-05-25T06:15:38.120Z,98437.91
2018-05-25T06:18:07.142Z,98436.23
2018-05-25T06:20:35.385Z,98438.93
2018-05-25T06:23:04.406Z,98433.13
2018-05-25T06:25:32.657Z,98433.91
2018-05-25T06:28:00.916Z,98439.89
2018-05-25T06:30:29.160Z,98449.70
2018-05-25T06:32:57.427Z,98449.11
2018-05-25T06:35:25.675Z,98444.75
2018-05-25T06:37:53.925Z,98450.29
2018-05-25T06:40:23.219Z,98453.25
2018-05-25T06:42:52.251Z,98457.94
2018-05-25T06:45:20.511Z,98454.95
2018-05-25T06:47:48.768Z,98452.24
2018-05-25T06:50:17.784Z,98456.32
2018-05-25T06:52:46.053Z,98453.57
2018-05-25T06:55:14.300Z,98450.75
2018-05-25T06:57:42.552Z,98454.52
2018-05-25T07:00:10.808Z,98449.90
2018-05-25T07:02:39.059Z,98449.55
2018-05-25T07:05:08.071Z,98454.81
2018-05-25T07:07:36.318Z,98453.63
2018-05-25T07:10:05.334Z,98459.78
2018-05-25T07:12:33.586Z,98456.58
2018-05-25T07:15:02.621Z,98458.41
2018-05-25T07:17:30.861Z,98455.82
2018-05-25T07:19:59.113Z,98463.86
2018-05-25T07:22:27.365Z,98467.19
2018-05-25T07:24:55.622Z,98470.62
2018-05-25T07:27:23.872Z,98472.37
2018-05-25T07:29:53.138Z,98469.33
2018-05-25T07:32:21.387Z,98471.98
2018-05-25T07:34:49.649Z,98476.21
2018-05-25T07:37:17.905Z,98478.77
2018-05-25T07:39:46.171Z,98477.59
2018-05-25T07:42:14.444Z,98477.98
2018-05-25T07:44:42.724Z,98474.72
2018-05-25T07:47:10.970Z,98469.56
2018-05-25T07:49:39.236Z,98467.86
2018-05-25T07:52:07.486Z,98465.88
2018-05-25T07:54:35.735Z,98466.39
2018-05-25T07:57:03.992Z,98467.20
2018-05-25T07:59:32.245Z,98471.04
2018-05-25T08:02:01.278Z,98468.46
2018-05-25T08:04:29.532Z,98461.18
2018-05-25T08:06:57.797Z,98457.72
2018-05-25T08:09:26.813Z,98461.27
2018-05-25T08:11:55.077Z,98462.52
2018-05-25T08:14:24.095Z,98468.66
2018-05-25T08:16:52.341Z,98473.70
2018-05-25T08:19:21.361Z,98477.34
2018-05-25T08:21:49.619Z,98480.53
2018-05-25T08:24:18.629Z,98471.03
2018-05-25T08:26:46.905Z,98465.08
2018-05-25T08:29:15.154Z,98465.97
2018-05-25T08:31:44.176Z,98464.42
2018-05-25T08:34:12.428Z,98471.55
2018-05-25T08:36:40.683Z,98473.21
2018-05-25T08:39:08.934Z,98469.08
2018-05-25T08:41:37.196Z,98464.39
2018-05-25T08:44:05.467Z,98467.52
2018-05-25T08:46:33.731Z,98472.83
2018-05-25T08:49:01.989Z,98478.34
2018-05-25T08:51:30.251Z,98466.97
2018-05-25T08:53:59.269Z,98466.22
2018-05-25T08:56:27.546Z,98467.48
2018-05-25T08:58:55.810Z,98468.00
2018-05-25T09:01:24.063Z,98470.78
2018-05-25T09:03:53.094Z,98462.83
2018-05-25T09:06:21.427Z,98460.23
2018-05-25T09:08:49.614Z,98463.83
2018-05-25T09:11:18.870Z,98459.06
2018-05-25T09:13:47.134Z,98456.56
2018-05-25T09:16:15.373Z,98461.03
2018-05-25T09:18:44.770Z,98457.08
2018-05-25T09:21:13.789Z,98460.58
2018-05-25T09:23:42.169Z,98453.67
2018-05-25T09:26:10.422Z,98454.97
2018-05-25T09:28:40.361Z,98452.94
2018-05-25T09:31:08.607Z,98448.69
2018-05-25T09:33:37.643Z,98447.27
2018-05-25T09:36:05.901Z,98449.36
2018-05-25T09:38:34.246Z,98451.98
2018-05-25T09:41:02.604Z,98445.26
2018-05-25T09:43:31.006Z,98446.91
2018-05-25T09:46:00.167Z,98449.08
2018-05-25T09:48:28.482Z,98452.02
2018-05-25T09:50:57.580Z,98444.33
2018-05-25T09:53:26.623Z,98446.91
2018-05-25T09:55:55.157Z,98446.73
2018-05-25T09:58:23.475Z,98449.94
2018-05-25T10:00:51.851Z,98443.78
2018-05-25T10:03:20.197Z,98438.64
2018-05-25T10:05:48.532Z,98440.64
2018-05-25T10:08:16.842Z,98437.89
2018-05-25T10:10:45.929Z,98440.73
2018-05-25T10:13:14.997Z,98445.27
2018-05-25T10:15:43.313Z,98444.00
2018-05-25T10:18:11.643Z,98448.03
2018-05-25T10:20:39.936Z,98440.01
2018-05-25T10:23:08.238Z,98444.61
2018-05-25T10:25:37.301Z,98441.28
2018-05-25T10:28:05.615Z,98447.59
2018-05-25T10:30:33.909Z,98447.81
2018-05-25T10:33:02.180Z,98449.32
2018-05-25T10:35:30.485Z,98451.88
2018-05-25T10:37:58.777Z,98449.34
2018-05-25T10:40:27.295Z,98446.03
2018-05-25T10:42:56.313Z,98444.23
2018-05-25T10:45:24.567Z,98451.56
2018-05-25T10:47:52.820Z,98447.97
2018-05-25T10:50:21.858Z,98445.59
2018-05-25T10:52:50.111Z,98442.81
2018-05-25T10:55:18.378Z,98438.90
2018-05-25T10:57:47.399Z,98435.36
2018-05-25T11:00:15.649Z,98444.95
2018-05-25T11:02:44.682Z,98437.78
2018-05-25T11:05:12.932Z,98427.57
2018-05-25T11:07:41.300Z,98432.84
2018-05-25T11:10:10.314Z,98431.77
2018-05-25T11:12:38.581Z,98427.87
2018-05-25T11:15:06.830Z,98431.89
2018-05-25T11:17:35.852Z,98426.53
2018-05-25T11:20:04.105Z,98417.17
2018-05-25T11:22:33.123Z,98415.39
2018-05-25T11:25:02.569Z,98409.75
2018-05-25T11:27:30.827Z,98415.10
2018-05-25T11:29:59.075Z,98410.95
2018-05-25T11:32:27.324Z,98403.69
2018-05-25T11:34:56.351Z,98401.09
2018-05-25T11:37:24.603Z,98398.27
2018-05-25T11:39:53.609Z,98397.42
2018-05-25T11:42:21.873Z,98394.41
2018-05-25T11:44:50.888Z,98396.98
2018-05-25T11:47:19.148Z,98389.92
2018-05-25T11:49:47.397Z,98391.77
2018-05-25T11:52:15.665Z,98389.34
2018-05-25T11:54:43.926Z,98387.22
2018-05-25T11:57:12.183Z,98384.84
2018-05-25T11:59:40.450Z,98385.66
2018-05-25T12:02:08.709Z,98385.20
2018-05-25T12:04:36.966Z,98381.94
2018-05-25T12:07:05.986Z,98369.59
2018-05-25T12:09:34.237Z,98374.48
2018-05-25T12:12:03.257Z,98375.91
2018-05-25T12:14:31.538Z,98377.37
2018-05-25T12:16:59.788Z,98375.77
2018-05-25T12:19:28.038Z,98375.83
2018-05-25T12:21:56.297Z,98370.32
2018-05-25T12:24:24.552Z,98378.77
2018-05-25T12:26:52.804Z,98364.80
2018-05-25T12:29:21.056Z,98366.77
2018-05-25T12:31:50.082Z,98360.39
2018-05-25T12:34:18.338Z,98357.55
2018-05-25T12:36:46.588Z,98359.13
2018-05-25T12:39:14.848Z,98356.33
2018-05-25T12:41:43.097Z,98363.61
2018-05-25T12:44:11.353Z,98359.83
2018-05-25T12:46:39.599Z,98363.66
2018-05-25T12:49:08.623Z,98359.05
2018-05-25T12:51:36.874Z,98358.38
2018-05-25T12:54:05.904Z,98357.63
2018-05-25T12:56:34.154Z,98358.73
2018-05-25T12:59:02.418Z,98352.80
2018-05-25T13:01:31.433Z,98343.09
2018-05-25T13:03:59.686Z,98351.14
2018-05-25T13:06:28.708Z,98349.95
2018-05-25T13:08:56.956Z,98352.06
2018-05-25T13:11:25.982Z,98355.33
2018-05-25T13:13:54.229Z,98353.45
2018-05-25T13:16:22.492Z,98353.80
2018-05-25T13:18:51.515Z,98358.32
2018-05-25T13:21:19.779Z,98351.56
2018-05-25T13:23:48.793Z,98353.50
2018-05-25T13:26:17.048Z,98349.79
2018-05-25T13:28:45.297Z,98359.86
2018-05-25T13:31:13.576Z,98354.52
2018-05-25T13:33:41.805Z,98357.89
2018-05-25T13:36:10.070Z,98358.34
2018-05-25T13:38:38.322Z,98359.83
2018-05-25T13:41:06.590Z,98358.72
2018-05-25T13:43:35.610Z,98353.67
2018-05-25T13:46:03.857Z,98351.42
2018-05-25T13:48:32.879Z,98354.53
2018-05-25T13:51:01.138Z,98353.36
2018-05-25T13:53:29.384Z,98354.05
2018-05-25T13:55:57.641Z,98356.52
2018-05-25T13:58:25.890Z,98351.38
2018-05-25T14:00:54.140Z,98347.89
2018-05-25T14:03:22.389Z,98346.87
2018-05-25T14:05:51.406Z,98344.30
2018-05-25T14:08:19.656Z,98347.23
2018-05-25T14:10:48.674Z,98346.50
2018-05-25T14:13:16.929Z,98345.05
2018-05-25T14:15:45.949Z,98340.14
2018-05-25T14:18:14.209Z,98339.15
2018-05-25T14:20:43.225Z,98340.17
2018-05-25T14:23:11.492Z,98335.14
2018-05-25T14:25:39.737Z,98339.64
2018-05-25T14:28:07.996Z,98344.17
2018-05-25T14:30:36.251Z,98338.73
2018-05-25T14:33:04.511Z,98335.77
2018-05-25T14:35:32.752Z,98334.62
2018-05-25T14:38:01.782Z,98340.14
2018-05-25T14:40:30.035Z,98344.47
2018-05-25T14:42:58.295Z,98340.69
2018-05-25T14:45:27.305Z,98344.84
2018-05-25T14:47:55.571Z,98335.94
2018-05-25T14:50:24.586Z,98341.34
2018-05-25T14:52:52.849Z,98341.81
2018-05-25T14:55:21.102Z,98342.33
2018-05-25T14:57:50.129Z,98342.31
2018-05-25T15:00:18.376Z,98345.20
2018-05-25T15:02:47.399Z,98342.80
2018-05-25T15:05:15.657Z,98345.45
2018-05-25T15:07:44.687Z,98348.77
2018-05-25T15:10:12.938Z,98350.19
2018-05-25T15:12:41.190Z,98347.33
2018-05-25T15:15:10.216Z,98345.95
2018-05-25T15:17:38.468Z,98348.26
2018-05-25T15:20:07.492Z,98343.81
2018-05-25T15:22:35.742Z,98345.89
2018-05-25T15:25:03.997Z,98345.14
2018-05-25T15:27:33.010Z,98340.88
2018-05-25T15:30:01.280Z,98343.65
2018-05-25T15:32:30.304Z,98343.30
2018-05-25T15:34:58.575Z,98345.80
2018-05-25T15:37:26.828Z,98337.20
2018-05-25T15:39:55.079Z,98338.30
2018-05-25T15:42:24.104Z,98334.65
2018-05-25T15:44:52.358Z,98331.04
2018-05-25T15:47:21.386Z,98330.09
2018-05-25T15:49:49.644Z,98324.33
2018-05-25T15:52:17.895Z,98333.53
2018-05-25T15:54:46.918Z,98330.70
2018-05-25T15:57:15.172Z,98339.56
2018-05-25T15:59:44.196Z,98340.78
2018-05-25T16:02:12.462Z,98334.14
2018-05-25T16:04:40.700Z,98337.67
2018-05-25T16:07:08.972Z,98337.20
2018-05-25T16:09:37.238Z,98338.47
2018-05-25T16:12:07.003Z,98338.98
2018-05-25T16:14:35.258Z,98338.70
2018-05-25T16:17:04.269Z,98337.66
2018-05-25T16:19:32.528Z,98328.81
2018-05-25T16:22:01.552Z,98335.85
2018-05-25T16:24:29.802Z,98335.64
2018-05-25T16:26:58.054Z,98340.41
2018-05-25T16:29:26.301Z,98343.52
2018-05-25T16:31:54.566Z,98343.59
2018-05-25T16:34:22.813Z,98346.31
2018-05-25T16:36:51.077Z,98348.77
2018-05-25T16:39:19.346Z,98355.33
2018-05-25T16:41:48.360Z,98358.55
2018-05-25T16:44:16.614Z,98348.05
2018-05-25T16:46:45.637Z,98345.14
2018-05-25T16:49:13.889Z,98346.34
2018-05-25T16:51:42.911Z,98345.39
2018-05-25T16:54:11.154Z,98351.34
2018-05-25T16:56:40.170Z,98352.33
2018-05-25T16:59:08.417Z,98350.22
2018-05-25T17:01:37.444Z,98355.94
2018-05-25T17:04:05.692Z,98353.98
2018-05-25T17:06:34.733Z,98359.05
2018-05-25T17:09:02.981Z,98359.78
2018-05-25T17:11:31.237Z,98360.25
2018-05-25T17:14:00.266Z,98357.50
2018-05-25T17:16:28.521Z,98352.06
2018-05-25T17:18:56.780Z,98354.16
2018-05-25T17:21:25.794Z,98350.42
2018-05-25T17:23:54.054Z,98352.34
2018-05-25T17:26:22.314Z,98360.56
2018-05-25T17:28:51.334Z,98360.30
2018-05-25T17:31:19.590Z,98357.40
2018-05-25T17:33:48.622Z,98367.83
2018-05-25T17:36:16.873Z,98362.87
2018-05-25T17:38:46.883Z,98368.45
2018-05-25T17:41:15.141Z,98369.20
2018-05-25T17:43:43.406Z,98367.62
2018-05-25T17:46:11.650Z,98371.34
2018-05-25T17:48:39.914Z,98373.58
2018-05-25T17:51:08.158Z,98377.23
2018-05-25T17:53:37.204Z,98371.58
2018-05-25T17:56:05.468Z,98382.66
2018-05-25T17:58:33.732Z,98377.66
2018-05-25T18:01:01.977Z,98378.66
2018-05-25T18:03:31.007Z,98374.66
2018-05-25T18:05:59.282Z,98378.02
2018-05-25T18:08:27.531Z,98388.25
2018-05-25T18:10:55.784Z,98377.95
2018-05-25T18:13:24.801Z,98380.40
2018-05-25T18:15:53.060Z,98383.83
2018-05-25T18:18:22.074Z,98378.45
2018-05-25T18:20:50.330Z,98386.11
2018-05-25T18:23:19.345Z,98380.71
2018-05-25T18:25:47.608Z,98388.97
2018-05-25T18:28:15.861Z,98390.45
2018-05-25T18:30:45.050Z,98388.46
2018-05-25T18:33:13.361Z,98381.31
2018-05-25T18:35:41.622Z,98392.41
2018-05-25T18:38:11.453Z,98388.53
2018-05-25T18:40:39.706Z,98394.84
2018-05-25T18:43:08.718Z,98404.17
2018-05-25T18:45:36.975Z,98404.43
2018-05-25T18:48:05.989Z,98404.66
2018-05-25T18:50:34.253Z,98411.61
2018-05-25T18:53:04.290Z,98414.15
2018-05-25T18:55:32.549Z,98406.80
2018-05-25T18:58:01.601Z,98415.81
2018-05-25T19:00:29.860Z,98413.95
2018-05-25T19:02:58.109Z,98417.14
2018-05-25T19:05:26.365Z,98416.22
2018-05-25T19:07:55.383Z,98417.25
2018-05-25T19:10:24.434Z,98421.39
2018-05-25T19:12:52.680Z,98417.80
2018-05-25T19:15:20.937Z,98426.67
2018-05-25T19:17:49.268Z,98425.50
2018-05-25T19:20:17.512Z,98426.76
2018-05-25T19:22:45.831Z,98430.61
2018-05-25T19:25:14.858Z,98441.48
2018-05-25T19:27:43.115Z,98445.63
2018-05-25T19:30:11.363Z,98451.38
2018-05-25T19:32:39.621Z,98452.02
2018-05-25T19:35:07.903Z,98449.41
2018-05-25T19:37:36.982Z,98449.25
2018-05-25T19:40:05.235Z,98453.36
2018-05-25T19:42:33.485Z,98455.14
2018-05-25T19:45:01.755Z,98465.19
2018-05-25T19:47:30.024Z,98475.16
2018-05-25T19:49:59.045Z,98474.67
2018-05-25T19:52:27.302Z,98477.77
2018-05-25T19:54:55.559Z,98476.93
2018-05-25T19:57:24.599Z,98477.27
2018-05-25T19:59:52.840Z,98478.55
2018-05-25T20:02:21.865Z,98480.67
2018-05-25T20:04:50.130Z,98480.48
2018-05-25T20:07:18.478Z,98484.13
2018-05-25T20:09:47.507Z,98480.95
2018-05-25T20:12:15.754Z,98475.43
2018-05-25T20:14:44.018Z,98475.23
2018-05-25T20:17:13.046Z,98481.30
2018-05-25T20:19:41.358Z,98479.31
2018-05-25T20:22:09.848Z,98472.92
2018-05-25T20:24:38.101Z,98477.06
2018-05-25T20:27:06.413Z,98471.23
2018-05-25T20:29:35.450Z,98472.67
2018-05-25T20:32:03.699Z,98469.73
2018-05-25T20:34:32.725Z,98468.97
2018-05-25T20:37:01.109Z,98470.20
2018-05-25T20:39:29.370Z,98469.58
2018-05-25T20:41:57.621Z,98470.65
2018-05-25T20:44:26.651Z,98469.01
2018-05-25T20:46:54.950Z,98467.25
2018-05-25T20:49:23.202Z,98467.91
2018-05-25T20:51:51.464Z,98466.67
2018-05-25T20:54:19.730Z,98468.58
2018-05-25T20:56:47.998Z,98466.97
2018-05-25T20:59:16.256Z,98464.91
2018-05-25T21:01:45.268Z,98467.89
2018-05-25T21:04:13.629Z,98470.34
2018-05-25T21:06:41.884Z,98471.50
2018-05-25T21:09:10.267Z,98475.83
2018-05-25T21:11:38.515Z,98479.70
2018-05-25T21:14:06.908Z,98477.14
2018-05-25T21:16:35.167Z,98481.97
2018-05-25T21:19:03.441Z,98482.11
2018-05-25T21:21:31.736Z,98485.20
2018-05-25T21:23:59.998Z,98482.75
2018-05-25T21:26:28.275Z,98483.58
2018-05-25T21:28:56.560Z,98477.14
2018-05-25T21:31:25.587Z,98475.08
2018-05-25T21:33:54.600Z,98475.86
2018-05-25T21:36:22.856Z,98472.84
2018-05-25T21:38:51.874Z,98463.88
2018-05-25T21:41:20.143Z,98472.05
2018-05-25T21:43:48.424Z,98477.64
2018-05-25T21:46:16.731Z,98482.90
2018-05-25T21:48:45.001Z,98485.57
2018-05-25T21:51:13.284Z,98482.75
2018-05-25T21:53:41.537Z,98482.88
2018-05-25T21:56:09.790Z,98485.41
2018-05-25T21:58:38.801Z,98473.99
2018-05-25T22:01:07.065Z,98483.24
2018-05-25T22:03:35.340Z,98488.01
2018-05-25T22:06:04.357Z,98487.92
2018-05-25T22:08:32.607Z,98488.81
2018-05-25T22:11:01.634Z,98489.28
2018-05-25T22:13:29.942Z,98495.22
2018-05-25T22:15:58.187Z,98498.70
2018-05-25T22:18:26.434Z,98496.63
2018-05-25T22:20:54.685Z,98502.88
2018-05-25T22:23:23.805Z,98499.01
2018-05-25T22:25:52.076Z,98502.50
2018-05-25T22:28:21.086Z,98506.84
2018-05-25T22:30:49.336Z,98504.89
2018-05-25T22:33:18.374Z,98505.42
2018-05-25T22:35:46.615Z,98505.08
2018-05-25T22:38:14.868Z,98514.06
2018-05-25T22:40:43.889Z,98508.20
2018-05-25T22:43:30.005Z,98510.28
2018-05-25T22:46:16.096Z,98508.64
2018-05-25T22:49:02.226Z,98505.64
2018-05-25T22:51:48.274Z,98511.64
2018-05-25T22:54:34.705Z,98507.75
2018-05-25T22:57:02.967Z,98512.48
2018-05-25T22:59:31.210Z,98513.82
2018-05-25T23:01:59.480Z,98515.59
2018-05-25T23:04:28.494Z,98518.61
2018-05-25T23:06:56.755Z,98519.82
2018-05-25T23:09:25.053Z,98519.11
2018-05-25T23:11:54.043Z,98520.95
2018-05-25T23:14:23.453Z,98523.03
2018-05-25T23:16:51.715Z,98519.51
2018-05-25T23:19:20.611Z,98517.77
2018-05-25T23:21:48.867Z,98525.91
2018-05-25T23:24:17.117Z,98520.78
2018-05-25T23:26:45.383Z,98525.23
2018-05-25T23:29:13.633Z,98520.60
2018-05-25T23:31:41.876Z,98520.21
2018-05-25T23:34:10.139Z,98520.82
2018-05-25T23:36:39.146Z,98515.78
2018-05-25T23:39:07.405Z,98523.91
2018-05-25T23:41:36.423Z,98519.74
2018-05-25T23:44:04.682Z,98518.59
2018-05-25T23:46:32.934Z,98523.31
2018-05-25T23:49:01.961Z,98521.65
2018-05-25T23:51:30.221Z,98527.63
2018-05-25T23:53:59.237Z,98531.23
2018-05-25T23:56:27.484Z,98543.22
2018-05-25T23:58:56.505Z,98541.55
